Weather History for Newton, KS

Change the Weather History Date:

Sunday, April 21, 2013

  Actual Average Record
Temperature  
Mean Temperature 57 °F -  
Max Temperature 66 °F 64 °F 80 °F (2001)
Min Temperature 48 °F 44 °F 35 °F (1998)
Degree Days  
Heating Degree Days 8    
Growing Degree Days 7 (Base 50)    
Moisture  
Dew Point 39 °F    
Average Humidity 52    
Maximum Humidity 66    
Minimum Humidity 40    
Precipitation  
Precipitation 0.00 in - - ()
Sea Level Pressure  
Sea Level Pressure 30.11 in    
Wind  
Wind Speed 14 mph (South)    
Max Wind Speed 28 mph    
Max Gust Speed 34 mph    
Visibility 10 miles    
Events      
Averages and records for this station are not official NWS values.
T = Trace of Precipitation, MM = Missing Value Source: NWS Daily Summary

Daily Weather History Graph

Daily Weather History Graph

Search for Another Location

Airport:

Trip Planner

Search our weather history database for the weather conditions in past years. The results will help you decide how hot, cold, wet, or windy it might be!

Date:

Astronomy

Apr. 21, 2013 Rise Set
Actual Time 6:45 AM CDT 8:11 PM CDT
Civil Twilight 6:17 AM CDT 8:38 PM CDT
Nautical Twilight 5:44 AM CDT 9:11 PM CDT
Astronomical Twilight 5:09 AM CDT 9:46 PM CDT
Moon 4:01 PM CDT (4/21) 4:03 AM CDT (4/21)
Length of Visible Light 14h 21m
Length of Day
13h 26m
Waxing Gibbous, 80% of the Moon is Illuminated
Apr 21
Waxing Gibbous
Apr 25
Full
May 2
Last Quarter
May 9
New
May 17
First Quarter

Hourly Weather History & Observations

Time (CDT) Temp. Dew Point Humidity Pressure Visibility Wind Dir Wind Speed Gust Speed Precip Events Conditions
12:15 AM 51.8 °F 37.4 °F 58% 30.10 in 10.0 mi SE 11.5 mph - N/A   Partly Cloudy
12:35 AM 51.8 °F 37.4 °F 58% 30.10 in 10.0 mi SE 11.5 mph - N/A   Clear
12:55 AM 51.8 °F 37.4 °F 58% 30.10 in 10.0 mi SE 11.5 mph - N/A   Clear
1:15 AM 50.0 °F 35.6 °F 58% 30.11 in 10.0 mi SSE 11.5 mph - N/A   Clear
1:35 AM 48.2 °F 35.6 °F 62% 30.11 in 10.0 mi SSE 8.1 mph - N/A   Clear
1:55 AM 48.2 °F 35.6 °F 62% 30.11 in 10.0 mi SSE 9.2 mph - N/A   Partly Cloudy
2:15 AM 48.2 °F 35.6 °F 62% 30.11 in 10.0 mi SE 8.1 mph - N/A   Scattered Clouds
2:35 AM 48.2 °F 35.6 °F 62% 30.11 in 10.0 mi SSE 8.1 mph - N/A   Scattered Clouds
2:55 AM 48.2 °F 35.6 °F 62% 30.10 in 10.0 mi SSE 10.4 mph - N/A   Mostly Cloudy
3:15 AM 48.2 °F 35.6 °F 62% 30.10 in 10.0 mi SSE 9.2 mph - N/A   Mostly Cloudy
3:35 AM 50.0 °F 35.6 °F 58% 30.11 in 10.0 mi South 9.2 mph - N/A   Mostly Cloudy
3:55 AM 50.0 °F 35.6 °F 58% 30.11 in 10.0 mi SSE 10.4 mph - N/A   Overcast
4:15 AM 48.2 °F 35.6 °F 62% 30.11 in 10.0 mi SE 8.1 mph - N/A   Overcast
4:35 AM 48.2 °F 35.6 °F 62% 30.11 in 10.0 mi SSE 9.2 mph - N/A   Overcast
4:55 AM 48.2 °F 35.6 °F 62% 30.11 in 10.0 mi SSE 8.1 mph - N/A   Overcast
5:15 AM 48.2 °F 35.6 °F 62% 30.11 in 10.0 mi SSE 8.1 mph - N/A   Mostly Cloudy
5:35 AM 48.2 °F 35.6 °F 62% 30.11 in 10.0 mi South 8.1 mph - N/A   Partly Cloudy
5:55 AM 48.2 °F 35.6 °F 62% 30.11 in 10.0 mi SSE 9.2 mph - N/A   Partly Cloudy
6:15 AM 50.0 °F 37.4 °F 62% 30.11 in 10.0 mi South 12.7 mph 21.9 mph N/A   Scattered Clouds
6:35 AM 48.2 °F 37.4 °F 66% 30.12 in 10.0 mi SSE 8.1 mph - N/A   Mostly Cloudy
6:55 AM 48.2 °F 35.6 °F 62% 30.13 in 10.0 mi SSE 10.4 mph - N/A   Mostly Cloudy
7:15 AM 50.0 °F 35.6 °F 58% 30.14 in 10.0 mi South 11.5 mph - N/A   Scattered Clouds
7:35 AM 48.2 °F 35.6 °F 62% 30.14 in 10.0 mi South 12.7 mph - N/A   Clear
7:55 AM 50.0 °F 35.6 °F 58% 30.15 in 10.0 mi South 11.5 mph - N/A   Scattered Clouds
8:15 AM 51.8 °F 37.4 °F 58% 30.16 in 10.0 mi South 11.5 mph - N/A   Overcast
8:35 AM 51.8 °F 37.4 °F 58% 30.16 in 10.0 mi South 11.5 mph - N/A   Mostly Cloudy
8:55 AM 53.6 °F 37.4 °F 54% 30.16 in 10.0 mi South 17.3 mph - N/A   Partly Cloudy
9:15 AM 55.4 °F 37.4 °F 51% 30.16 in 10.0 mi South 20.7 mph - N/A   Clear
9:35 AM 57.2 °F 39.2 °F 51% 30.16 in 10.0 mi South 18.4 mph 25.3 mph N/A   Clear
9:55 AM 57.2 °F 39.2 °F 51% 30.16 in 10.0 mi South 23.0 mph 28.8 mph N/A   Clear
10:15 AM 57.2 °F 39.2 °F 51% 30.16 in 10.0 mi South 24.2 mph - N/A   Clear
10:35 AM 59.0 °F 37.4 °F 45% 30.16 in 10.0 mi South 23.0 mph 33.4 mph N/A   Clear
10:55 AM 60.8 °F 39.2 °F 45% 30.16 in 10.0 mi South 24.2 mph 28.8 mph N/A   Clear
11:15 AM 60.8 °F 39.2 °F 45% 30.16 in 10.0 mi South 26.5 mph 33.4 mph N/A   Clear
11:35 AM 60.8 °F 39.2 °F 45% 30.16 in 10.0 mi SSW 26.5 mph 32.2 mph N/A   Clear
11:55 AM 62.6 °F 39.2 °F 42% 30.15 in 10.0 mi South 26.5 mph 34.5 mph N/A   Clear
12:15 PM 62.6 °F 39.2 °F 42% 30.15 in 10.0 mi South 23.0 mph 31.1 mph N/A   Clear
12:35 PM 62.6 °F 39.2 °F 42% 30.14 in 10.0 mi South 27.6 mph 31.1 mph N/A   Clear
12:55 PM 62.6 °F 41.0 °F 45% 30.14 in 10.0 mi South 23.0 mph 29.9 mph N/A   Clear
1:15 PM 64.4 °F 41.0 °F 42% 30.13 in 10.0 mi SSW 23.0 mph 33.4 mph N/A   Clear
1:35 PM 64.4 °F 41.0 °F 42% 30.13 in 10.0 mi South 25.3 mph 31.1 mph N/A   Clear
1:55 PM 64.4 °F 41.0 °F 42% 30.12 in 10.0 mi SSW 19.6 mph - N/A   Scattered Clouds
2:15 PM 64.4 °F 41.0 °F 42% 30.11 in 10.0 mi South 24.2 mph 28.8 mph N/A   Scattered Clouds
2:35 PM 66.2 °F 41.0 °F 40% 30.11 in 10.0 mi South 20.7 mph 28.8 mph N/A   Partly Cloudy
2:55 PM 66.2 °F 41.0 °F 40% 30.10 in 10.0 mi South 25.3 mph 32.2 mph N/A   Partly Cloudy
3:15 PM 66.2 °F 42.8 °F 43% 30.09 in 10.0 mi South 21.9 mph 28.8 mph N/A   Partly Cloudy
3:35 PM 66.2 °F 42.8 °F 43% 30.08 in 10.0 mi South 21.9 mph 27.6 mph N/A   Scattered Clouds
3:55 PM 66.2 °F 42.8 °F 43% 30.07 in 10.0 mi South 20.7 mph 29.9 mph N/A   Partly Cloudy
4:15 PM 66.2 °F 42.8 °F 43% 30.07 in 10.0 mi South 20.7 mph 26.5 mph N/A   Partly Cloudy
4:35 PM 66.2 °F 41.0 °F 40% 30.07 in 10.0 mi South 18.4 mph 28.8 mph N/A   Clear
4:55 PM 66.2 °F 41.0 °F 40% 30.06 in 10.0 mi South 27.6 mph - N/A   Clear
5:15 PM 66.2 °F 41.0 °F 40% 30.06 in 10.0 mi South 18.4 mph 26.5 mph N/A   Clear
5:35 PM 66.2 °F 41.0 °F 40% 30.07 in 10.0 mi South 16.1 mph - N/A   Clear
5:55 PM 66.2 °F 41.0 °F 40% 30.07 in 10.0 mi South 18.4 mph - N/A   Clear
6:15 PM 64.4 °F 39.2 °F 40% 30.07 in 10.0 mi South 13.8 mph - N/A   Clear
6:35 PM 64.4 °F 41.0 °F 42% 30.07 in 10.0 mi South 16.1 mph 21.9 mph N/A   Clear
6:55 PM 64.4 °F 41.0 °F 42% 30.07 in 10.0 mi South 17.3 mph 23.0 mph N/A   Clear
7:15 PM 62.6 °F 39.2 °F 42% 30.07 in 10.0 mi South 12.7 mph - N/A   Clear
7:35 PM 60.8 °F 39.2 °F 45% 30.07 in 10.0 mi South 12.7 mph - N/A   Clear
7:55 PM 59.0 °F 41.0 °F 51% 30.08 in 10.0 mi South 9.2 mph - N/A   Clear
8:15 PM 57.2 °F 41.0 °F 55% 30.09 in 10.0 mi South 8.1 mph - N/A   Clear
8:35 PM 53.6 °F 39.2 °F 58% 30.09 in 10.0 mi South 8.1 mph - N/A   Clear
8:55 PM 55.4 °F 39.2 °F 54% 30.10 in 10.0 mi South 8.1 mph - N/A   Clear
9:15 PM 55.4 °F 39.2 °F 54% 30.10 in 10.0 mi South 9.2 mph - N/A   Clear
9:35 PM 55.4 °F 39.2 °F 54% 30.10 in 10.0 mi South 10.4 mph - N/A   Clear
9:55 PM 53.6 °F 39.2 °F 58% 30.10 in 10.0 mi SSE 9.2 mph - N/A   Clear
10:15 PM 53.6 °F 39.2 °F 58% 30.11 in 10.0 mi South 9.2 mph - N/A   Clear
10:35 PM 53.6 °F 39.2 °F 58% 30.11 in 10.0 mi SSE 9.2 mph - N/A   Clear
10:55 PM 53.6 °F 39.2 °F 58% 30.11 in 10.0 mi SSE 9.2 mph - N/A   Clear
11:15 PM 53.6 °F 39.2 °F 58% 30.11 in 10.0 mi SSE 10.4 mph - N/A   Clear
11:35 PM 51.8 °F 39.2 °F 62% 30.11 in 10.0 mi SSE 9.2 mph - N/A   Clear
11:55 PM 51.8 °F 39.2 °F 62% 30.11 in 10.0 mi SSE 9.2 mph - N/A   Clear